Leuchars, United Kingdom

8:47 PM BST on August 30, 2015 (GMT +0100)
Sheltered gardens, old Wood Yard | | Change Station
CLOSE
Current Station
Personal Weather Station
Location: Tayport,
Elevation: 23 ft
Nearby Weather Stations

Elev 23 ft 56.45 °N, 2.88 °W | Updated 4 seconds ago

Partly Cloudy
Partly Cloudy
58.1 °F
Feels Like 58.1 °F
N
3.6
Wind Variable Wind from WNW
Gusts 4.9 mph

Today
High -- | Low -- °F
--% Chance of Precip.
Yesterday
High -- | Low -- °F
Precip. -- in
6:10 AM 8:12 PM
Full, 98% visible
Pressure 30.06 in
Visibility 6.2 miles
Clouds Few 3500 ft
Dew Point 50 °F
Humidity 73%
Rainfall 0.00 in
Snow Depth Not available.
UV 0.0 out of 12
Pollen Not available.
Air Quality Not available.
Flu Activity Not available.
METAR EGPN 301920Z 28005KT 240V330 9999 FEW035 14/11 Q1018
Pressure 30.06 in
Visibility 6.2 miles
Clouds Few 3500 ft
Dew Point 50 °F
Humidity 73%
Rainfall 0.00 in
Snow Depth Not available.
UV 0.0 out of 12
Pollen Not available.
Air Quality Not available.
Flu Activity Not available.
METAR EGPN 301920Z 28005KT 240V330 9999 FEW035 14/11 Q1018

10-Day Weather Forecast

×

Almanac

Astronomy

Aug. 30, 2015 Rise Set
Actual Time
Civil Twilight
Nautical Twilight
Astronomical Twilight
Moon
Length of Visible Light
Length of Day
Tomorrow will be .
, % of the Moon is Illuminated

Today's Extremes

Country Highs Country Lows

Community

WunderPhotos

Upload Photos

1,851,041 photos uploaded!

WunderBlogs® & News

Nearby

Air Quality

  Air Quality AQ Index Pollutant
Not available.

Snow Depth

Station Depth Elevation

Earthquake Activity

City Distance Mag. Time & Date
Minimum magnitude displayed is 2.5.

Coastal Water Temperatures

Place Temperature

Stations

Nearby Weather Stations

Station Location Temp. Windchill Dew Point Humidity Wind Precip. Elev Updated Type